createdAt,value
2022-11-10T00:01:09.002Z,18.13
2022-11-10T00:03:38.556Z,17.38
2022-11-10T00:06:07.372Z,17.17
2022-11-10T00:08:34.969Z,19.08
2022-11-10T00:11:06.760Z,17.70
2022-11-10T00:13:57.531Z,18.40
2022-11-10T00:16:42.840Z,19.63
2022-11-10T00:19:10.821Z,19.83
2022-11-10T00:21:38.761Z,20.38
2022-11-10T00:24:06.634Z,20.88
2022-11-10T00:26:34.156Z,17.95
2022-11-10T00:29:03.040Z,16.90
2022-11-10T00:31:30.571Z,21.87
2022-11-10T00:33:59.482Z,16.40
2022-11-10T00:36:27.054Z,18.65
2022-11-10T00:38:54.603Z,15.65
2022-11-10T00:41:22.332Z,14.95
2022-11-10T00:43:50.587Z,12.60
2022-11-10T00:46:19.576Z,12.20
2022-11-10T00:48:47.091Z,10.73
2022-11-10T00:51:21.502Z,10.30
2022-11-10T00:53:49.249Z,13.23
2022-11-10T00:56:16.853Z,13.95
2022-11-10T00:58:44.877Z,13.55
2022-11-10T01:01:12.975Z,13.27
2022-11-10T01:03:42.244Z,14.23
2022-11-10T01:06:13.538Z,10.30
2022-11-10T01:08:42.053Z,10.40
2022-11-10T01:11:11.879Z,11.45
2022-11-10T01:13:39.612Z,12.73
2022-11-10T01:16:08.459Z,9.35
2022-11-10T01:18:36.780Z,7.75
2022-11-10T01:21:06.463Z,7.78
2022-11-10T01:23:34.185Z,12.10
2022-11-10T01:26:03.230Z,6.88
2022-11-10T01:28:31.191Z,7.40
2022-11-10T01:30:59.060Z,7.53
2022-11-10T01:33:27.915Z,5.45
2022-11-10T01:35:55.718Z,5.20
2022-11-10T01:38:27.478Z,8.65
2022-11-10T01:40:55.162Z,6.65
2022-11-10T01:43:23.472Z,8.70
2022-11-10T01:45:53.746Z,7.53
2022-11-10T01:48:29.673Z,6.68
2022-11-10T01:51:01.939Z,8.15
2022-11-10T01:53:33.550Z,7.38
2022-11-10T01:56:01.497Z,8.35
2022-11-10T01:58:33.662Z,6.93
2022-11-10T02:01:01.244Z,7.05
2022-11-10T02:03:34.355Z,8.80
2022-11-10T02:06:02.568Z,9.10
2022-11-10T02:08:31.813Z,8.68
2022-11-10T02:10:59.338Z,9.80
2022-11-10T02:13:27.152Z,13.10
2022-11-10T02:15:54.683Z,11.73
2022-11-10T02:18:22.194Z,12.48
2022-11-10T02:20:51.090Z,11.38
2022-11-10T02:23:49.531Z,13.38
2022-11-10T02:26:20.514Z,10.18
2022-11-10T02:28:48.087Z,15.10
2022-11-10T02:31:15.624Z,9.23
2022-11-10T02:33:44.067Z,10.55
2022-11-10T02:36:13.167Z,14.20
2022-11-10T02:38:41.131Z,12.95
2022-11-10T02:41:08.647Z,10.27
2022-11-10T02:43:37.623Z,15.75
2022-11-10T02:46:05.276Z,11.43
2022-11-10T02:48:33.647Z,10.13
2022-11-10T02:51:01.208Z,12.60
2022-11-10T02:53:30.104Z,12.45
2022-11-10T02:55:57.622Z,13.40
2022-11-10T02:58:25.114Z,11.90
2022-11-10T03:00:52.704Z,9.30
2022-11-10T03:03:20.573Z,12.40
2022-11-10T03:05:48.338Z,11.95
2022-11-10T03:08:15.957Z,10.93
2022-11-10T03:10:44.831Z,10.55
2022-11-10T03:13:12.335Z,12.30
2022-11-10T03:15:39.858Z,11.50
2022-11-10T03:18:07.586Z,12.75
2022-11-10T03:20:35.145Z,14.02
2022-11-10T03:23:03.719Z,14.73
2022-11-10T03:25:31.345Z,13.98
2022-11-10T03:28:00.244Z,15.48
2022-11-10T03:30:28.103Z,12.07
2022-11-10T03:32:55.637Z,12.25
2022-11-10T03:35:23.226Z,13.93
2022-11-10T03:37:50.743Z,13.85
2022-11-10T03:40:18.390Z,16.17
2022-11-10T03:42:47.028Z,13.85
2022-11-10T03:45:16.364Z,12.98
2022-11-10T03:47:47.236Z,13.35
2022-11-10T03:50:15.803Z,11.07
2022-11-10T03:52:44.796Z,15.15
2022-11-10T03:55:13.630Z,14.88
2022-11-10T03:57:41.135Z,10.00
2022-11-10T04:00:10.501Z,11.15
2022-11-10T04:02:40.272Z,9.70
2022-11-10T04:05:26.221Z,10.45
2022-11-10T04:08:18.572Z,14.50
2022-11-10T04:10:46.268Z,11.82
2022-11-10T04:13:31.677Z,9.35
2022-11-10T04:15:59.248Z,10.20
2022-11-10T04:18:29.590Z,11.65
2022-11-10T04:20:59.228Z,11.38
2022-11-10T04:23:28.881Z,11.38
2022-11-10T04:26:16.499Z,10.57
2022-11-10T04:28:44.900Z,11.73
2022-11-10T04:31:13.391Z,9.40
2022-11-10T04:33:43.142Z,14.40
2022-11-10T04:36:12.604Z,11.85
2022-11-10T04:38:40.738Z,12.70
2022-11-10T04:41:09.003Z,15.93
2022-11-10T04:43:37.016Z,18.35
2022-11-10T04:46:05.871Z,15.47
2022-11-10T04:48:34.692Z,13.65
2022-11-10T04:51:06.144Z,14.88
2022-11-10T04:53:34.315Z,13.30
2022-11-10T04:56:02.022Z,15.70
2022-11-10T04:58:29.638Z,15.73
2022-11-10T05:00:57.198Z,17.07
2022-11-10T05:03:26.480Z,15.13
2022-11-10T05:05:54.035Z,16.57
2022-11-10T05:08:22.958Z,12.57
2022-11-10T05:10:50.472Z,15.10
2022-11-10T05:13:18.037Z,14.13
2022-11-10T05:15:46.467Z,15.77
2022-11-10T05:18:13.982Z,14.50
2022-11-10T05:20:41.645Z,15.27
2022-11-10T05:23:26.796Z,17.43
2022-11-10T05:25:55.666Z,16.67
2022-11-10T05:28:23.264Z,17.07
2022-11-10T05:30:50.850Z,17.27
2022-11-10T05:33:18.534Z,19.40
2022-11-10T05:35:46.222Z,15.93
2022-11-10T05:38:13.734Z,17.30
2022-11-10T05:40:41.321Z,16.07
2022-11-10T05:43:11.314Z,14.97
2022-11-10T05:45:38.835Z,18.13
2022-11-10T05:48:06.614Z,17.33
2022-11-10T05:50:34.132Z,15.23
2022-11-10T05:53:01.653Z,14.73
2022-11-10T05:55:30.107Z,17.90
2022-11-10T05:57:58.679Z,20.37
2022-11-10T06:00:29.040Z,17.33
2022-11-10T06:03:02.287Z,19.00
2022-11-10T06:05:31.450Z,16.83
2022-11-10T06:08:00.030Z,19.30
2022-11-10T06:10:27.627Z,17.60
2022-11-10T06:12:55.711Z,18.47
2022-11-10T06:15:23.334Z,22.57
2022-11-10T06:17:52.724Z,17.97
2022-11-10T06:20:20.414Z,12.97
2022-11-10T06:22:59.976Z,12.53
2022-11-10T06:25:28.177Z,12.07
2022-11-10T06:27:55.738Z,15.60
2022-11-10T06:30:23.706Z,26.03
2022-11-10T06:32:52.825Z,15.97
2022-11-10T06:35:20.929Z,21.90
2022-11-10T06:37:58.330Z,19.73
2022-11-10T06:40:26.165Z,19.37
2022-11-10T06:42:53.838Z,23.20
2022-11-10T06:45:21.485Z,22.03
2022-11-10T06:47:49.142Z,17.60
2022-11-10T06:50:18.095Z,22.00
2022-11-10T06:52:45.604Z,20.20
2022-11-10T06:55:13.102Z,15.80
2022-11-10T06:57:41.045Z,18.10
2022-11-10T07:00:10.082Z,18.97
2022-11-10T07:02:37.606Z,22.13
2022-11-10T07:05:05.576Z,22.77
2022-11-10T07:07:34.482Z,22.10
2022-11-10T07:10:06.750Z,22.33
2022-11-10T07:12:34.774Z,23.43
2022-11-10T07:15:02.288Z,26.53
2022-11-10T07:17:29.808Z,24.77
2022-11-10T07:19:57.327Z,24.67
2022-11-10T07:22:24.899Z,21.00
2022-11-10T07:24:53.751Z,17.63
2022-11-10T07:27:21.286Z,18.20
2022-11-10T07:29:48.810Z,21.77
2022-11-10T07:32:16.322Z,19.70
2022-11-10T07:34:43.840Z,20.23
2022-11-10T07:37:11.378Z,16.73
2022-11-10T07:39:38.887Z,16.27
2022-11-10T07:42:07.808Z,16.63
2022-11-10T07:44:35.349Z,13.85
2022-11-10T07:47:02.873Z,20.42
2022-11-10T07:49:30.395Z,15.60
2022-11-10T07:51:57.927Z,13.15
2022-11-10T07:54:25.456Z,13.52
2022-11-10T07:56:53.635Z,10.45
2022-11-10T07:59:22.496Z,14.82
2022-11-10T08:01:50.133Z,12.68
2022-11-10T08:04:17.777Z,11.88
2022-11-10T08:06:45.401Z,14.75
2022-11-10T08:09:12.974Z,16.63
2022-11-10T08:11:40.640Z,20.13
2022-11-10T08:14:08.298Z,25.27
2022-11-10T08:16:37.215Z,17.70
2022-11-10T08:19:04.927Z,8.80
2022-11-10T08:21:32.578Z,17.05
2022-11-10T08:24:00.095Z,21.98
2022-11-10T08:26:27.663Z,9.38
2022-11-10T08:28:55.172Z,10.80
2022-11-10T08:31:23.147Z,12.30
2022-11-10T08:33:52.155Z,7.40
2022-11-10T08:36:19.717Z,8.85
2022-11-10T08:38:47.224Z,8.20
2022-11-10T08:41:15.811Z,7.78
2022-11-10T08:43:43.477Z,9.57
2022-11-10T08:46:11.000Z,8.18
2022-11-10T08:48:38.503Z,4.80
2022-11-10T08:51:07.388Z,4.28
2022-11-10T08:53:34.886Z,5.70
2022-11-10T08:56:02.414Z,6.55
2022-11-10T08:58:29.948Z,7.13
2022-11-10T09:00:57.610Z,4.80
2022-11-10T09:03:26.582Z,4.93
2022-11-10T09:05:58.248Z,4.88
2022-11-10T09:08:28.000Z,5.47
2022-11-10T09:10:55.581Z,6.03
2022-11-10T09:13:28.231Z,6.15
2022-11-10T09:15:57.196Z,5.50
2022-11-10T09:18:24.715Z,7.13
2022-11-10T09:20:52.224Z,7.60
2022-11-10T09:23:20.760Z,4.85
2022-11-10T09:25:52.671Z,5.47
2022-11-10T09:28:21.031Z,4.78
2022-11-10T09:30:49.468Z,4.38
2022-11-10T09:33:17.624Z,6.43
2022-11-10T09:35:45.212Z,5.22
2022-11-10T09:38:12.847Z,5.68
2022-11-10T09:40:55.533Z,6.50
2022-11-10T09:43:29.396Z,6.80
2022-11-10T09:46:01.423Z,6.28
2022-11-10T09:48:31.659Z,11.88
2022-11-10T09:51:03.084Z,6.05
2022-11-10T09:53:35.841Z,7.85
2022-11-10T09:56:06.658Z,6.80
2022-11-10T09:58:39.575Z,6.20
2022-11-10T10:01:18.805Z,6.07
2022-11-10T10:03:49.887Z,6.88
2022-11-10T10:06:20.027Z,8.02
2022-11-10T10:09:01.310Z,7.43
2022-11-10T10:11:44.278Z,7.22
2022-11-10T10:14:30.244Z,6.57
2022-11-10T10:17:05.285Z,6.85
2022-11-10T10:19:42.549Z,7.78
2022-11-10T10:22:33.196Z,6.95
2022-11-10T10:25:04.751Z,5.13
2022-11-10T10:27:39.511Z,4.70
2022-11-10T10:30:14.059Z,7.50
2022-11-10T10:32:42.507Z,6.38
2022-11-10T10:35:14.196Z,6.13
2022-11-10T10:37:45.591Z,4.10
2022-11-10T10:40:17.213Z,8.30
2022-11-10T10:42:46.459Z,5.95
2022-11-10T10:45:22.669Z,6.75
2022-11-10T10:47:52.006Z,7.53
2022-11-10T10:50:26.775Z,5.68
2022-11-10T10:53:08.061Z,6.07
2022-11-10T10:55:36.499Z,6.88
2022-11-10T10:58:07.511Z,6.80
2022-11-10T11:00:44.438Z,7.85
2022-11-10T11:03:20.514Z,8.43
2022-11-10T11:06:01.343Z,6.03
2022-11-10T11:08:28.982Z,8.15
2022-11-10T11:10:56.543Z,6.45
2022-11-10T11:13:29.987Z,9.48
2022-11-10T11:15:58.734Z,4.75
2022-11-10T11:18:28.103Z,5.45
2022-11-10T11:21:01.862Z,5.40
2022-11-10T11:23:47.790Z,5.60
2022-11-10T11:26:20.891Z,8.65
2022-11-10T11:28:58.363Z,6.82
2022-11-10T11:31:42.727Z,6.75
2022-11-10T11:34:18.401Z,6.55
2022-11-10T11:36:54.292Z,5.22
2022-11-10T11:39:35.111Z,6.00
2022-11-10T11:42:15.708Z,8.55
2022-11-10T11:45:00.731Z,5.20
2022-11-10T11:47:41.038Z,7.63
2022-11-10T11:50:17.711Z,6.82
2022-11-10T11:52:58.646Z,8.55
2022-11-10T11:55:37.751Z,5.07
2022-11-10T11:58:23.759Z,10.23
2022-11-10T12:01:00.767Z,6.90
2022-11-10T12:03:49.152Z,7.57
2022-11-10T12:06:40.425Z,4.80
2022-11-10T12:09:18.612Z,7.43
2022-11-10T12:12:02.377Z,6.45
2022-11-10T12:14:42.427Z,12.52
2022-11-10T12:17:21.160Z,17.50
2022-11-10T12:19:58.240Z,10.02
2022-11-10T12:22:36.141Z,7.53
2022-11-10T12:25:19.775Z,25.90
2022-11-10T12:27:53.616Z,10.40
2022-11-10T12:30:21.155Z,22.25
2022-11-10T12:32:56.113Z,15.85
2022-11-10T12:35:27.212Z,7.20
2022-11-10T12:38:00.042Z,9.80
2022-11-10T12:40:32.983Z,11.38
2022-11-10T12:43:02.040Z,17.48
2022-11-10T12:45:34.729Z,11.20
2022-11-10T12:48:05.495Z,8.65
2022-11-10T12:50:43.078Z,6.97
2022-11-10T12:53:18.346Z,10.07
2022-11-10T12:55:50.278Z,10.48
2022-11-10T12:58:19.938Z,7.90
2022-11-10T13:00:57.457Z,8.27
2022-11-10T13:03:29.131Z,7.30
2022-11-10T13:05:59.949Z,8.23
2022-11-10T13:08:32.823Z,7.47
2022-11-10T13:11:05.433Z,6.93
2022-11-10T13:13:42.582Z,8.13
2022-11-10T13:16:11.515Z,6.90
2022-11-10T13:19:01.836Z,7.07
2022-11-10T13:22:09.912Z,6.65
2022-11-10T13:24:39.240Z,6.18
2022-11-10T13:27:12.208Z,5.35
2022-11-10T13:29:56.701Z,5.25
2022-11-10T13:32:30.116Z,7.88
2022-11-10T13:35:40.536Z,9.20
2022-11-10T13:38:34.216Z,4.93
2022-11-10T13:41:24.643Z,10.55
2022-11-10T13:43:54.255Z,6.05
2022-11-10T13:46:32.215Z,5.97
2022-11-10T13:49:31.279Z,6.10
2022-11-10T13:52:09.545Z,4.07
2022-11-10T13:55:16.518Z,7.13
2022-11-10T13:57:59.688Z,5.13
2022-11-10T14:00:29.954Z,9.07
2022-11-10T14:02:58.789Z,8.27
2022-11-10T14:06:04.866Z,5.68
2022-11-10T14:08:41.023Z,4.82
2022-11-10T14:11:17.020Z,4.30
2022-11-10T14:13:50.530Z,5.85
2022-11-10T14:16:23.139Z,5.47
2022-11-10T14:18:56.606Z,8.15
2022-11-10T14:21:33.059Z,5.88
2022-11-10T14:24:10.678Z,10.68
2022-11-10T14:26:42.768Z,12.00
2022-11-10T14:29:21.725Z,19.85
2022-11-10T14:31:49.415Z,11.60
2022-11-10T14:34:18.712Z,10.18
2022-11-10T14:36:54.811Z,15.75
2022-11-10T14:39:29.092Z,9.52
2022-11-10T14:41:58.614Z,8.35
2022-11-10T14:44:28.319Z,6.97
2022-11-10T14:46:56.291Z,17.23
2022-11-10T14:49:25.732Z,10.13
2022-11-10T14:51:58.632Z,10.93
2022-11-10T14:54:28.799Z,12.15
2022-11-10T14:56:57.372Z,14.95
2022-11-10T14:59:26.474Z,12.20
2022-11-10T15:01:57.057Z,10.43
2022-11-10T15:04:29.521Z,10.20
2022-11-10T15:06:58.437Z,8.80
2022-11-10T15:09:30.380Z,4.95
2022-11-10T15:12:19.286Z,4.70
2022-11-10T15:14:48.013Z,6.20
2022-11-10T15:17:17.800Z,5.85
2022-11-10T15:20:01.259Z,9.80
2022-11-10T15:22:31.209Z,11.25
2022-11-10T15:25:02.518Z,9.27
2022-11-10T15:27:32.497Z,7.53
2022-11-10T15:30:02.288Z,10.13
2022-11-10T15:32:35.915Z,9.88
2022-11-10T15:35:12.016Z,11.80
2022-11-10T15:37:39.584Z,12.90
2022-11-10T15:40:31.488Z,10.77
2022-11-10T15:43:28.920Z,4.55
2022-11-10T15:46:00.445Z,6.25
2022-11-10T15:48:36.856Z,5.65
2022-11-10T15:51:04.840Z,6.97
2022-11-10T15:53:34.309Z,5.78
2022-11-10T15:56:03.230Z,8.37
2022-11-10T15:58:30.863Z,7.07
2022-11-10T16:00:58.433Z,7.80
2022-11-10T16:03:27.689Z,12.03
2022-11-10T16:05:55.277Z,10.47
2022-11-10T16:08:24.109Z,8.40
2022-11-10T16:10:54.967Z,8.90
2022-11-10T16:13:26.308Z,8.00
2022-11-10T16:15:54.403Z,11.80
2022-11-10T16:18:23.868Z,12.82
2022-11-10T16:20:53.147Z,17.85
2022-11-10T16:23:21.285Z,15.53
2022-11-10T16:25:51.467Z,23.73
2022-11-10T16:28:22.083Z,14.03
2022-11-10T16:30:51.363Z,10.10
2022-11-10T16:33:20.779Z,10.07
2022-11-10T16:35:51.176Z,12.87
2022-11-10T16:38:21.788Z,14.13
2022-11-10T16:40:54.043Z,16.30
2022-11-10T16:43:22.188Z,10.87
2022-11-10T16:45:53.742Z,11.97
2022-11-10T16:48:24.108Z,14.57
2022-11-10T16:50:53.581Z,12.90
2022-11-10T16:53:23.578Z,16.50
2022-11-10T16:55:51.189Z,19.10
2022-11-10T16:58:18.758Z,15.93
2022-11-10T17:00:47.918Z,15.63
2022-11-10T17:03:18.830Z,16.07
2022-11-10T17:05:46.552Z,18.43
2022-11-10T17:08:22.117Z,13.73
2022-11-10T17:10:49.926Z,12.43
2022-11-10T17:13:17.918Z,9.87
2022-11-10T17:15:47.195Z,14.90
2022-11-10T17:18:19.670Z,7.40
2022-11-10T17:20:50.326Z,9.00
2022-11-10T17:23:22.473Z,10.10
2022-11-10T17:25:51.332Z,7.63
2022-11-10T17:28:19.791Z,6.50
2022-11-10T17:30:47.382Z,7.27
2022-11-10T17:33:15.161Z,8.60
2022-11-10T17:35:47.242Z,13.73
2022-11-10T17:38:21.334Z,12.13
2022-11-10T17:40:49.101Z,13.27
2022-11-10T17:43:16.982Z,14.53
2022-11-10T17:45:44.628Z,11.53
2022-11-10T17:48:12.206Z,11.47
2022-11-10T17:50:42.283Z,13.03
2022-11-10T17:53:18.784Z,17.33
2022-11-10T17:55:47.858Z,18.67
2022-11-10T17:58:15.879Z,16.87
2022-11-10T18:00:43.447Z,15.47
2022-11-10T18:03:15.083Z,19.10
2022-11-10T18:05:43.305Z,16.60
2022-11-10T18:08:13.380Z,26.40
2022-11-10T18:10:43.062Z,50.47
2022-11-10T18:13:11.225Z,27.63
2022-11-10T18:15:42.734Z,25.50
2022-11-10T18:18:12.567Z,18.27
2022-11-10T18:20:40.547Z,31.70
2022-11-10T18:23:11.375Z,22.37
2022-11-10T18:25:41.392Z,24.37
2022-11-10T18:28:09.945Z,27.10
2022-11-10T18:30:38.772Z,25.10
2022-11-10T18:33:07.033Z,24.50
2022-11-10T18:35:37.754Z,25.17
2022-11-10T18:38:06.154Z,18.77
2022-11-10T18:40:33.763Z,23.17
2022-11-10T18:43:07.130Z,21.70
2022-11-10T18:45:36.643Z,28.57
2022-11-10T18:48:04.994Z,52.77
2022-11-10T18:50:32.676Z,38.50
2022-11-10T18:53:00.483Z,64.80
2022-11-10T18:55:28.016Z,46.07
2022-11-10T18:57:55.560Z,63.80
2022-11-10T19:00:24.751Z,164.10
2022-11-10T19:02:52.284Z,74.03
2022-11-10T19:05:19.811Z,55.73
2022-11-10T19:07:47.355Z,61.03
2022-11-10T19:10:14.908Z,77.50
2022-11-10T19:12:42.449Z,81.30
2022-11-10T19:15:10.167Z,66.83
2022-11-10T19:17:39.070Z,49.77
2022-11-10T19:20:08.970Z,49.20
2022-11-10T19:22:36.513Z,55.17
2022-11-10T19:25:08.514Z,30.13
2022-11-10T19:27:36.899Z,42.03
2022-11-10T19:30:05.261Z,33.90
2022-11-10T19:32:33.170Z,32.13
2022-11-10T19:35:03.720Z,47.13
2022-11-10T19:37:34.827Z,50.70
2022-11-10T19:40:02.735Z,34.90
2022-11-10T19:42:30.593Z,32.63
2022-11-10T19:44:58.795Z,34.10
2022-11-10T19:47:26.616Z,32.00
2022-11-10T19:49:54.121Z,29.07
2022-11-10T19:52:22.987Z,29.70
2022-11-10T19:54:50.473Z,32.17
2022-11-10T19:57:17.998Z,30.00
2022-11-10T19:59:45.495Z,30.77
2022-11-10T20:02:13.637Z,35.10
2022-11-10T20:05:01.315Z,34.33
2022-11-10T20:07:48.027Z,54.87
2022-11-10T20:10:15.656Z,76.07
2022-11-10T20:12:43.207Z,71.23
2022-11-10T20:15:11.687Z,68.93
2022-11-10T20:17:39.274Z,60.07
2022-11-10T20:20:07.718Z,76.37
2022-11-10T20:22:36.596Z,65.77
2022-11-10T20:25:04.565Z,57.57
2022-11-10T20:27:32.364Z,30.23
2022-11-10T20:29:59.988Z,39.37
2022-11-10T20:32:28.444Z,36.10
2022-11-10T20:34:55.991Z,35.20
2022-11-10T20:37:23.893Z,42.80
2022-11-10T20:39:52.836Z,40.53
2022-11-10T20:42:20.343Z,42.67
2022-11-10T20:44:47.928Z,39.93
2022-11-10T20:47:15.524Z,42.73
2022-11-10T20:49:43.171Z,38.60
2022-11-10T20:52:10.719Z,37.47
2022-11-10T20:54:38.267Z,35.97
2022-11-10T20:57:07.205Z,29.73
2022-11-10T20:59:34.761Z,36.17
2022-11-10T21:02:02.358Z,43.10
2022-11-10T21:04:29.979Z,38.27
2022-11-10T21:06:57.699Z,40.97
2022-11-10T21:09:26.895Z,42.30
2022-11-10T21:12:12.096Z,40.53
2022-11-10T21:14:41.008Z,35.73
2022-11-10T21:17:08.531Z,31.47
2022-11-10T21:19:36.812Z,27.57
2022-11-10T21:22:04.360Z,37.90
2022-11-10T21:24:31.901Z,32.13
2022-11-10T21:26:59.738Z,31.27
2022-11-10T21:29:27.242Z,27.73
2022-11-10T21:31:56.111Z,31.60
2022-11-10T21:34:23.607Z,37.80
2022-11-10T21:36:51.147Z,36.20
2022-11-10T21:39:18.682Z,28.80
2022-11-10T21:41:46.205Z,29.87
2022-11-10T21:44:13.709Z,27.90
2022-11-10T21:46:41.232Z,22.90
2022-11-10T21:49:10.117Z,29.80
2022-11-10T21:51:37.714Z,30.27
2022-11-10T21:54:05.479Z,35.80
2022-11-10T21:56:33.027Z,36.33
2022-11-10T21:59:00.802Z,26.50
2022-11-10T22:01:28.913Z,28.47
2022-11-10T22:03:56.490Z,27.17
2022-11-10T22:06:45.408Z,29.33
2022-11-10T22:09:13.102Z,33.73
2022-11-10T22:11:58.446Z,54.13
2022-11-10T22:14:43.686Z,34.37
2022-11-10T22:17:33.606Z,80.00
2022-11-10T22:20:01.147Z,161.60
2022-11-10T22:22:30.005Z,62.67
2022-11-10T22:24:57.521Z,53.60
2022-11-10T22:27:25.023Z,63.30
2022-11-10T22:29:52.579Z,36.03
2022-11-10T22:32:20.088Z,29.37
2022-11-10T22:34:47.715Z,31.60
2022-11-10T22:37:15.191Z,26.50
2022-11-10T22:40:01.718Z,25.63
2022-11-10T22:42:46.856Z,26.47
2022-11-10T22:45:14.556Z,73.43
2022-11-10T22:47:58.803Z,69.87
2022-11-10T22:50:26.334Z,160.50
2022-11-10T22:52:53.835Z,348.17
2022-11-10T22:55:22.730Z,560.63
2022-11-10T22:57:52.859Z,526.00
2022-11-10T23:00:21.006Z,155.70
2022-11-10T23:02:48.587Z,107.10
2022-11-10T23:05:16.220Z,307.93
2022-11-10T23:07:43.739Z,203.87
2022-11-10T23:10:11.291Z,100.73
2022-11-10T23:12:40.152Z,286.70
2022-11-10T23:15:08.614Z,115.93
2022-11-10T23:17:36.123Z,60.67
2022-11-10T23:20:03.909Z,168.47
2022-11-10T23:22:31.404Z,93.97
2022-11-10T23:24:58.921Z,136.97
2022-11-10T23:27:26.441Z,96.33
2022-11-10T23:29:55.331Z,91.70
2022-11-10T23:32:22.921Z,166.93
2022-11-10T23:34:50.445Z,119.43
2022-11-10T23:37:18.469Z,94.90
2022-11-10T23:39:46.365Z,128.97
2022-11-10T23:42:13.940Z,131.83
2022-11-10T23:44:41.485Z,146.87
2022-11-10T23:47:10.349Z,104.63
2022-11-10T23:49:37.956Z,102.47
2022-11-10T23:52:05.523Z,126.90
2022-11-10T23:54:33.047Z,101.97
2022-11-10T23:57:00.566Z,121.20
2022-11-10T23:59:28.078Z,68.17
